createdAt,value
2018-12-14T00:01:29.267Z,96742.80
2018-12-14T00:04:10.824Z,96736.02
2018-12-14T00:06:52.663Z,96735.50
2018-12-14T00:09:25.064Z,96735.89
2018-12-14T00:12:06.748Z,96735.12
2018-12-14T00:14:48.721Z,96730.39
2018-12-14T00:17:30.770Z,96730.87
2018-12-14T00:20:06.655Z,96734.98
2018-12-14T00:22:47.727Z,96735.48
2018-12-14T00:25:29.835Z,96732.59
2018-12-14T00:28:11.712Z,96739.16
2018-12-14T00:30:53.695Z,96738.75
2018-12-14T00:33:35.612Z,96749.88
2018-12-14T00:36:06.975Z,96747.70
2018-12-14T00:38:40.164Z,96748.47
2018-12-14T00:41:22.187Z,96744.48
2018-12-14T00:43:55.216Z,96748.05
2018-12-14T00:46:42.154Z,96746.44
2018-12-14T00:49:14.731Z,96740.81
2018-12-14T00:51:56.388Z,96753.18
2018-12-14T00:54:31.123Z,96754.44
2018-12-14T00:57:12.710Z,96757.64
2018-12-14T00:59:45.960Z,96761.97
2018-12-14T01:02:29.662Z,96761.59
2018-12-14T01:05:05.553Z,96759.55
2018-12-14T01:07:49.583Z,96759.73
2018-12-14T01:10:31.553Z,96758.67
2018-12-14T01:13:13.484Z,96759.90
2018-12-14T01:15:55.339Z,96766.72
2018-12-14T01:18:28.564Z,96769.02
2018-12-14T01:21:01.283Z,96766.33
2018-12-14T01:23:42.464Z,96763.42
2018-12-14T01:26:24.151Z,96768.48
2018-12-14T01:28:57.211Z,96767.48
2018-12-14T01:31:39.224Z,96779.73
2018-12-14T01:34:12.438Z,96788.92
2018-12-14T01:36:53.919Z,96789.16
2018-12-14T01:39:27.095Z,96795.10
2018-12-14T01:42:04.994Z,96794.58
2018-12-14T01:44:47.198Z,96797.95
2018-12-14T01:47:20.389Z,96799.64
2018-12-14T01:49:56.039Z,96800.41
2018-12-14T01:52:37.612Z,96791.62
2018-12-14T01:55:19.540Z,96799.40
2018-12-14T01:57:52.866Z,96797.28
2018-12-14T02:00:25.955Z,96797.36
2018-12-14T02:03:01.539Z,96795.73
2018-12-14T02:05:42.983Z,96796.63
2018-12-14T02:08:18.392Z,96793.63
2018-12-14T02:10:59.965Z,96796.27
2018-12-14T02:13:41.839Z,96794.66
2018-12-14T02:16:24.127Z,96792.73
2018-12-14T02:18:56.859Z,96789.94
2018-12-14T02:21:38.720Z,96791.22
2018-12-14T02:24:15.448Z,96789.86
2018-12-14T02:26:56.771Z,96799.45
2018-12-14T02:29:29.928Z,96795.49
2018-12-14T02:32:11.843Z,96800.62
2018-12-14T02:34:53.756Z,96792.33
2018-12-14T02:37:26.708Z,96798.43
2018-12-14T02:39:59.048Z,96799.42
2018-12-14T02:42:40.931Z,96798.30
2018-12-14T02:45:13.870Z,96793.88
2018-12-14T02:47:47.296Z,96794.92
2018-12-14T02:50:20.166Z,96793.68
2018-12-14T02:53:00.089Z,96796.62
2018-12-14T02:55:41.975Z,96802.18
2018-12-14T02:58:15.247Z,96802.52
2018-12-14T03:00:56.420Z,96805.92
2018-12-14T03:03:31.891Z,96808.45
2018-12-14T03:06:13.500Z,96811.62
2018-12-14T03:08:49.048Z,96809.95
2018-12-14T03:11:30.648Z,96818.42
2018-12-14T03:14:03.992Z,96817.39
2018-12-14T03:16:45.983Z,96813.60
2018-12-14T03:19:19.353Z,96822.92
2018-12-14T03:21:51.975Z,96829.13
2018-12-14T03:24:27.418Z,96834.05
2018-12-14T03:26:59.967Z,96823.98
2018-12-14T03:29:41.934Z,96823.87
2018-12-14T03:32:23.695Z,96830.36
2018-12-14T03:35:00.440Z,96823.13
2018-12-14T03:37:41.653Z,96828.11
2018-12-14T03:40:14.820Z,96832.00
2018-12-14T03:42:56.603Z,96838.09
2018-12-14T03:45:44.889Z,96831.32
2018-12-14T03:48:17.516Z,96836.23
2018-12-14T03:50:53.182Z,96828.81
2018-12-14T03:53:34.603Z,96828.31
2018-12-14T03:56:10.318Z,96829.56
2018-12-14T03:58:42.899Z,96831.81
2018-12-14T04:01:16.252Z,96832.45
2018-12-14T04:03:58.043Z,96828.95
2018-12-14T04:06:40.059Z,96838.05
2018-12-14T04:09:13.591Z,96835.52
2018-12-14T04:11:49.189Z,96840.30
2018-12-14T04:14:21.829Z,96845.91
2018-12-14T04:17:03.740Z,96841.47
2018-12-14T04:19:36.091Z,96844.34
2018-12-14T04:22:19.956Z,96840.66
2018-12-14T04:25:01.932Z,96835.91
2018-12-14T04:27:43.128Z,96842.14
2018-12-14T04:30:16.255Z,96842.61
2018-12-14T04:32:57.333Z,96848.35
2018-12-14T04:35:39.133Z,96852.34
2018-12-14T04:38:21.140Z,96851.52
2018-12-14T04:40:54.383Z,96848.33
2018-12-14T04:43:35.633Z,96852.20
2018-12-14T04:46:06.684Z,96850.27
2018-12-14T04:48:40.212Z,96845.63
2018-12-14T04:51:22.040Z,96847.55
2018-12-14T04:53:57.484Z,96842.44
2018-12-14T04:56:38.879Z,96839.58
2018-12-14T04:59:12.129Z,96856.80
2018-12-14T05:01:56.185Z,96858.09
2018-12-14T05:04:37.372Z,96858.08
2018-12-14T05:07:19.351Z,96860.02
2018-12-14T05:09:52.595Z,96858.75
2018-12-14T05:12:33.764Z,96865.13
2018-12-14T05:15:07.737Z,96866.75
2018-12-14T05:17:45.237Z,96871.86
2018-12-14T05:20:18.306Z,96867.87
2018-12-14T05:22:59.872Z,96882.25
2018-12-14T05:25:41.795Z,96878.73
2018-12-14T05:28:15.181Z,96880.64
2018-12-14T05:30:56.981Z,96876.98
2018-12-14T05:33:38.892Z,96885.89
2018-12-14T05:36:25.585Z,96878.88
2018-12-14T05:38:58.635Z,96876.80
2018-12-14T05:41:40.256Z,96871.24
2018-12-14T05:44:22.142Z,96874.42
2018-12-14T05:46:52.596Z,96873.48
2018-12-14T05:49:34.453Z,96879.05
2018-12-14T05:52:15.912Z,96883.02
2018-12-14T05:54:57.711Z,96889.25
2018-12-14T05:57:35.259Z,96889.66
2018-12-14T06:00:11.022Z,96880.47
2018-12-14T06:05:25.554Z,96885.18
2018-12-14T06:08:07.439Z,96883.62
2018-12-14T06:10:48.762Z,96882.60
2018-12-14T06:13:30.251Z,96886.09
2018-12-14T06:16:05.027Z,96880.88
2018-12-14T06:18:37.783Z,96888.44
2018-12-14T06:21:19.567Z,96884.58
2018-12-14T06:23:56.889Z,96883.37
2018-12-14T06:26:30.006Z,96883.03
2018-12-14T06:29:02.951Z,96892.88
2018-12-14T06:31:45.136Z,96893.86
2018-12-14T06:34:16.151Z,96897.92
2018-12-14T06:36:58.375Z,96898.03
2018-12-14T06:39:33.580Z,96901.98
2018-12-14T06:42:20.299Z,96902.87
2018-12-14T06:45:01.735Z,96897.33
2018-12-14T06:47:34.500Z,96909.62
2018-12-14T06:50:07.931Z,96913.37
2018-12-14T06:52:49.899Z,96909.02
2018-12-14T06:55:31.156Z,96912.55
2018-12-14T06:58:13.404Z,96917.20
2018-12-14T07:06:27.607Z,96911.08
2018-12-14T07:09:04.023Z,96918.43
2018-12-14T07:14:38.575Z,96922.84
2018-12-14T07:17:14.928Z,96929.02
2018-12-14T07:19:50.032Z,96929.30
2018-12-14T07:25:31.191Z,96944.69
2018-12-14T07:28:06.601Z,96941.66
2018-12-14T07:30:48.424Z,96945.25
2018-12-14T07:33:25.383Z,96945.33
2018-12-14T07:36:07.132Z,96952.47
2018-12-14T07:38:40.546Z,96958.58
2018-12-14T07:41:13.460Z,96967.53
2018-12-14T07:43:48.996Z,96967.25
2018-12-14T07:46:30.627Z,96964.00
2018-12-14T07:49:07.242Z,96966.52
2018-12-14T07:51:48.423Z,96970.22
2018-12-14T07:54:30.527Z,96966.78
2018-12-14T07:57:17.409Z,96967.33
2018-12-14T07:59:50.596Z,96965.12
2018-12-14T08:02:26.219Z,96965.59
2018-12-14T08:05:07.708Z,96966.73
2018-12-14T08:07:41.703Z,96964.73
2018-12-14T08:10:14.688Z,96966.95
2018-12-14T08:12:56.863Z,96960.02
2018-12-14T08:15:38.619Z,96962.51
2018-12-14T08:18:14.328Z,96963.25
2018-12-14T08:20:55.747Z,96960.65
2018-12-14T08:23:37.628Z,96963.24
2018-12-14T08:26:25.495Z,96959.33
2018-12-14T08:28:58.780Z,96969.01
2018-12-14T08:31:40.756Z,96980.17
2018-12-14T08:34:22.584Z,96980.23
2018-12-14T08:36:55.647Z,96985.05
2018-12-14T08:39:28.760Z,96981.47
2018-12-14T08:42:10.540Z,96984.84
2018-12-14T08:44:52.508Z,96987.08
2018-12-14T08:47:28.055Z,96989.95
2018-12-14T08:50:00.805Z,96993.08
2018-12-14T08:52:31.847Z,96997.37
2018-12-14T08:55:03.157Z,97002.03
2018-12-14T08:57:45.188Z,97007.59
2018-12-14T09:00:17.519Z,97010.97
2018-12-14T09:02:59.648Z,97011.43
2018-12-14T09:05:41.612Z,97017.11
2018-12-14T09:08:14.883Z,97020.77
2018-12-14T09:10:48.119Z,97023.53
2018-12-14T09:13:30.091Z,97020.72
2018-12-14T09:16:12.023Z,97025.38
2018-12-14T09:18:45.289Z,97032.78
2018-12-14T09:24:26.543Z,97032.67
2018-12-14T09:27:08.353Z,97037.06
2018-12-14T09:29:41.344Z,97038.39
2018-12-14T09:32:16.671Z,97044.06
2018-12-14T09:34:58.319Z,97039.17
2018-12-14T09:37:40.159Z,97037.36
2018-12-14T09:40:13.438Z,97047.91
2018-12-14T09:42:55.280Z,97049.23
2018-12-14T09:45:39.151Z,97046.91
2018-12-14T09:48:20.315Z,97045.38
2018-12-14T09:51:01.379Z,97056.95
2018-12-14T09:53:32.348Z,97056.59
2018-12-14T09:56:14.139Z,97052.88
2018-12-14T09:58:47.367Z,97057.59
2018-12-14T10:01:29.245Z,97056.66
2018-12-14T10:04:00.247Z,97059.47
2018-12-14T10:06:41.435Z,97058.94
2018-12-14T10:11:54.860Z,97056.82
2018-12-14T10:14:31.457Z,97064.91
2018-12-14T10:17:13.477Z,97070.73
2018-12-14T10:19:44.713Z,97069.09
2018-12-14T10:22:26.775Z,97071.48
2018-12-14T10:24:59.100Z,97065.55
2018-12-14T10:27:40.927Z,97067.57
2018-12-14T10:30:14.105Z,97071.01
2018-12-14T10:32:45.147Z,97067.12
2018-12-14T10:35:21.740Z,97068.81
2018-12-14T10:38:03.033Z,97067.22
2018-12-14T10:40:44.718Z,97066.84
2018-12-14T10:43:26.876Z,97062.78
2018-12-14T10:46:08.391Z,97064.72
2018-12-14T10:48:41.629Z,97051.44
2018-12-14T10:51:23.470Z,97053.71
2018-12-14T10:54:05.484Z,97055.95
2018-12-14T10:56:40.255Z,97050.55
2018-12-14T10:59:12.917Z,97054.61
2018-12-14T11:01:56.996Z,97052.11
2018-12-14T11:04:38.586Z,97054.38
2018-12-14T11:07:20.468Z,97053.02
2018-12-14T11:14:58.083Z,97051.80
2018-12-14T11:17:39.112Z,97048.16
2018-12-14T11:20:12.503Z,97052.27
2018-12-14T11:22:54.225Z,97054.23
2018-12-14T11:25:36.104Z,97044.42
2018-12-14T11:28:18.008Z,97046.35
2018-12-14T11:30:59.087Z,97046.22
2018-12-14T11:33:31.507Z,97043.09
2018-12-14T11:36:12.628Z,97045.70
2018-12-14T11:38:45.864Z,97044.95
2018-12-14T11:41:18.605Z,97046.05
2018-12-14T11:44:00.422Z,97048.39
2018-12-14T11:46:42.592Z,97044.94
2018-12-14T11:49:17.939Z,97043.31
2018-12-14T11:51:48.710Z,97046.63
2018-12-14T11:54:30.559Z,97043.80
2018-12-14T11:57:12.577Z,97041.52
2018-12-14T11:59:54.548Z,97045.53
2018-12-14T12:02:33.896Z,97044.45
2018-12-14T12:05:15.135Z,97040.39
2018-12-14T12:07:57.446Z,97034.39
2018-12-14T12:10:30.492Z,97030.77
2018-12-14T12:13:12.347Z,97036.70
2018-12-14T12:15:54.141Z,97037.02
2018-12-14T12:18:27.274Z,97036.23
2018-12-14T12:21:09.165Z,97036.00
2018-12-14T12:23:55.284Z,97031.90
2018-12-14T12:26:34.356Z,97029.48
2018-12-14T12:29:07.599Z,97033.84
2018-12-14T12:31:49.207Z,97037.75
2018-12-14T12:34:31.224Z,97036.05
2018-12-14T12:37:13.166Z,97038.80
2018-12-14T12:39:46.223Z,97038.97
2018-12-14T12:42:28.115Z,97037.16
2018-12-14T12:45:13.535Z,97037.83
2018-12-14T12:47:56.534Z,97035.87
2018-12-14T12:50:30.354Z,97032.70
2018-12-14T12:53:05.160Z,97033.03
2018-12-14T12:55:51.980Z,97037.44
2018-12-14T12:58:26.123Z,97040.98
2018-12-14T13:01:12.995Z,97040.67
2018-12-14T13:03:48.091Z,97041.84
2018-12-14T13:06:30.151Z,97039.18
2018-12-14T13:09:12.087Z,97037.59
2018-12-14T13:11:54.159Z,97040.80
2018-12-14T13:14:41.137Z,97040.58
2018-12-14T13:17:23.044Z,97036.49
2018-12-14T13:19:56.996Z,97044.58
2018-12-14T13:22:38.407Z,97046.22
2018-12-14T13:25:21.094Z,97042.31
2018-12-14T13:27:54.349Z,97041.02
2018-12-14T13:30:28.423Z,97046.03
2018-12-14T13:33:10.282Z,97047.97
2018-12-14T13:35:47.004Z,97048.11
2018-12-14T13:38:29.867Z,97055.53
2018-12-14T13:41:12.752Z,97054.52
2018-12-14T13:46:55.079Z,97065.83
2018-12-14T13:49:30.600Z,97069.20
2018-12-14T13:52:06.061Z,97069.49
2018-12-14T13:54:47.782Z,97075.67
2018-12-14T13:57:41.126Z,97081.35
2018-12-14T14:00:13.956Z,97086.80
2018-12-14T14:02:55.859Z,97092.09
2018-12-14T14:05:29.063Z,97094.26
2018-12-14T14:08:19.356Z,97097.39
2018-12-14T14:10:54.300Z,97101.26
2018-12-14T14:13:36.018Z,97098.59
2018-12-14T14:18:47.467Z,97109.45
2018-12-14T14:21:21.316Z,97115.12
2018-12-14T14:24:03.425Z,97113.45
2018-12-14T14:26:44.760Z,97116.33
2018-12-14T14:29:18.468Z,97123.89
2018-12-14T14:31:56.141Z,97129.00
2018-12-14T14:34:26.955Z,97135.36
2018-12-14T14:37:08.459Z,97130.53
2018-12-14T14:39:41.639Z,97128.53
2018-12-14T14:42:25.631Z,97138.17
2018-12-14T14:45:05.612Z,97138.19
2018-12-14T14:47:40.945Z,97146.25
2018-12-14T14:50:13.459Z,97146.60
2018-12-14T14:52:55.182Z,97153.71
2018-12-14T14:55:50.521Z,97155.14
2018-12-14T14:58:22.955Z,97151.97
2018-12-14T15:01:04.807Z,97151.59
2018-12-14T15:03:47.187Z,97163.36
2018-12-14T15:06:28.932Z,97167.60
2018-12-14T15:09:02.295Z,97171.77
2018-12-14T15:11:43.784Z,97174.17
2018-12-14T15:14:24.904Z,97179.40
2018-12-14T15:19:29.871Z,97180.66
2018-12-14T15:22:04.490Z,97179.78
2018-12-14T15:24:44.943Z,97182.05
2018-12-14T15:27:26.908Z,97183.55
2018-12-14T15:30:08.191Z,97192.32
2018-12-14T15:32:41.282Z,97187.65
2018-12-14T15:35:25.451Z,97193.96
2018-12-14T15:38:07.420Z,97192.77
2018-12-14T15:40:42.173Z,97192.09
2018-12-14T15:43:23.544Z,97194.61
2018-12-14T15:46:04.723Z,97203.13
2018-12-14T15:48:37.979Z,97205.05
2018-12-14T15:51:19.128Z,97208.94
2018-12-14T15:53:52.300Z,97207.95
2018-12-14T15:56:33.748Z,97211.04
2018-12-14T15:59:06.820Z,97217.60
2018-12-14T16:01:43.610Z,97220.97
2018-12-14T16:04:29.967Z,97225.55
2018-12-14T16:07:11.788Z,97225.28
2018-12-14T16:09:55.705Z,97229.80
2018-12-14T16:12:33.032Z,97229.52
2018-12-14T16:15:19.983Z,97230.55
2018-12-14T16:17:59.324Z,97239.92
2018-12-14T16:20:32.555Z,97239.26
2018-12-14T16:23:08.425Z,97245.52
2018-12-14T16:25:49.544Z,97247.56
2018-12-14T16:28:22.785Z,97250.44
2018-12-14T16:31:04.736Z,97252.05
2018-12-14T16:33:39.192Z,97252.86
2018-12-14T16:36:21.115Z,97258.25
2018-12-14T16:38:53.623Z,97261.81
2018-12-14T16:41:35.785Z,97263.88
2018-12-14T16:44:17.352Z,97269.22
2018-12-14T16:46:59.431Z,97267.63
2018-12-14T16:49:32.817Z,97271.97
2018-12-14T16:52:14.735Z,97279.50
2018-12-14T16:54:56.662Z,97284.02
2018-12-14T16:57:38.700Z,97293.43
2018-12-14T17:00:20.718Z,97294.09
2018-12-14T17:03:02.581Z,97295.10
2018-12-14T17:05:40.273Z,97295.44
2018-12-14T17:08:24.152Z,97298.78
2018-12-14T17:11:12.972Z,97294.33
2018-12-14T17:13:59.427Z,97303.13
2018-12-14T17:16:42.292Z,97300.16
2018-12-14T17:19:18.890Z,97310.10
2018-12-14T17:22:01.172Z,97309.34
2018-12-14T17:24:43.084Z,97317.11
2018-12-14T17:27:25.264Z,97322.94
2018-12-14T17:30:09.259Z,97354.89
2018-12-14T17:32:51.033Z,97329.67
2018-12-14T17:35:33.237Z,97333.37
2018-12-14T17:38:22.375Z,97336.75
2018-12-14T17:41:03.633Z,97349.08
2018-12-14T17:43:45.871Z,97336.34
2018-12-14T17:46:28.585Z,97338.23
2018-12-14T17:49:03.924Z,97340.02
2018-12-14T17:51:45.670Z,97351.02
2018-12-14T17:54:27.364Z,97347.06
2018-12-14T17:57:01.804Z,97344.66
2018-12-14T17:59:48.524Z,97346.75
2018-12-14T18:02:30.530Z,97356.95
2018-12-14T18:05:13.562Z,97358.36
2018-12-14T18:07:44.721Z,97363.32
2018-12-14T18:10:17.812Z,97359.62
2018-12-14T18:12:59.760Z,97365.40
2018-12-14T18:15:46.340Z,97367.33
2018-12-14T18:18:24.631Z,97368.73
2018-12-14T18:20:58.055Z,97371.02
2018-12-14T18:23:39.732Z,97369.10
2018-12-14T18:26:17.375Z,97374.10
2018-12-14T18:28:50.120Z,97375.55
2018-12-14T18:31:21.482Z,97381.14
2018-12-14T18:33:54.434Z,97380.48
2018-12-14T18:36:30.048Z,97379.37
2018-12-14T18:39:10.118Z,97383.86
2018-12-14T18:41:51.329Z,97386.12
2018-12-14T18:44:33.337Z,97397.66
2018-12-14T18:47:04.627Z,97398.15
2018-12-14T18:49:35.199Z,97401.55
2018-12-14T18:52:17.028Z,97399.61
2018-12-14T18:54:48.059Z,97402.84
2018-12-14T18:57:30.006Z,97398.86
2018-12-14T19:00:06.699Z,97407.14
2018-12-14T19:02:47.836Z,97416.14
2018-12-14T19:05:21.335Z,97419.55
2018-12-14T19:07:52.129Z,97422.42
2018-12-14T19:10:25.564Z,97422.22
2018-12-14T19:13:07.382Z,97428.31
2018-12-14T19:15:51.205Z,97429.00
2018-12-14T19:18:22.235Z,97426.28
2018-12-14T19:21:04.217Z,97426.00
2018-12-14T19:23:45.272Z,97426.13
2018-12-14T19:26:27.323Z,97440.09
2018-12-14T19:29:00.493Z,97445.23
2018-12-14T19:31:42.444Z,97447.77
2018-12-14T19:34:24.121Z,97443.30
2018-12-14T19:37:00.770Z,97445.53
2018-12-14T19:39:42.259Z,97446.97
2018-12-14T19:42:24.273Z,97443.58
2018-12-14T19:44:55.451Z,97453.20
2018-12-14T19:47:37.535Z,97451.80
2018-12-14T19:50:10.539Z,97460.33
2018-12-14T19:52:53.359Z,97464.03
2018-12-14T19:55:26.403Z,97460.34
2018-12-14T19:57:59.690Z,97456.63
2018-12-14T20:00:33.947Z,97452.47
2018-12-14T20:03:15.972Z,97459.53
2018-12-14T20:05:57.879Z,97459.85
2018-12-14T20:08:33.301Z,97460.47
2018-12-14T20:11:14.833Z,97465.28
2018-12-14T20:13:56.692Z,97461.91
2018-12-14T20:16:38.562Z,97459.32
2018-12-14T20:19:12.747Z,97463.99
2018-12-14T20:21:59.811Z,97460.47
2018-12-14T20:24:42.096Z,97465.13
2018-12-14T20:27:24.087Z,97466.89
2018-12-14T20:29:57.597Z,97471.37
2018-12-14T20:32:33.251Z,97475.53
2018-12-14T20:35:15.460Z,97476.64
2018-12-14T20:37:57.480Z,97473.27
2018-12-14T20:40:31.523Z,97484.81
2018-12-14T20:43:07.032Z,97488.55
2018-12-14T20:45:48.393Z,97488.54
2018-12-14T20:48:29.587Z,97486.13
2018-12-14T20:51:11.394Z,97486.43
2018-12-14T20:53:52.496Z,97483.11
2018-12-14T20:56:34.314Z,97482.59
2018-12-14T20:59:07.908Z,97482.58
2018-12-14T21:01:42.957Z,97479.56
2018-12-14T21:04:24.409Z,97480.66
2018-12-14T21:07:06.332Z,97483.06
2018-12-14T21:09:42.097Z,97481.13
2018-12-14T21:12:23.440Z,97475.39
2018-12-14T21:15:05.826Z,97472.52
2018-12-14T21:17:36.559Z,97479.06
2018-12-14T21:20:11.911Z,97477.78
2018-12-14T21:22:53.536Z,97481.13
2018-12-14T21:38:13.488Z,97474.27
2018-12-14T21:40:46.660Z,97479.71
2018-12-14T21:43:28.351Z,97478.78
2018-12-14T21:46:10.316Z,97471.41
2018-12-14T21:48:43.757Z,97469.91
2018-12-14T21:51:19.324Z,97474.73
2018-12-14T21:54:05.026Z,97476.00
2018-12-14T21:56:46.697Z,97463.81
2018-12-14T21:59:19.757Z,97463.65
2018-12-14T22:02:01.360Z,97463.48
2018-12-14T22:04:37.521Z,97457.53
2018-12-14T22:07:24.374Z,97463.13
2018-12-14T22:10:05.610Z,97466.03
2018-12-14T22:12:54.565Z,97465.72
2018-12-14T22:15:38.059Z,97463.79
2018-12-14T22:18:17.368Z,97462.19
2018-12-14T22:20:49.161Z,97468.27
2018-12-14T22:23:31.446Z,97460.41
2018-12-14T22:26:14.892Z,97459.75
2018-12-14T22:28:51.916Z,97456.89
2018-12-14T22:31:35.943Z,97464.40
2018-12-14T22:34:12.647Z,97462.08
2018-12-14T22:36:54.079Z,97457.06
2018-12-14T22:39:27.447Z,97454.97
2018-12-14T22:42:09.043Z,97449.83
2018-12-14T22:44:50.888Z,97453.53
2018-12-14T22:47:33.087Z,97454.63
2018-12-14T22:50:06.517Z,97452.57
2018-12-14T22:52:41.656Z,97450.17
2018-12-14T22:55:16.861Z,97447.13
2018-12-14T22:58:01.042Z,97449.83
2018-12-14T23:00:36.760Z,97453.50
2018-12-14T23:03:22.173Z,97449.70
2018-12-14T23:06:03.323Z,97446.53
2018-12-14T23:08:35.928Z,97450.70
2018-12-14T23:11:11.305Z,97451.81
2018-12-14T23:13:52.539Z,97457.11
2018-12-14T23:16:41.964Z,97455.00
2018-12-14T23:19:22.639Z,97454.34
2018-12-14T23:21:54.084Z,97462.11
2018-12-14T23:24:29.106Z,97460.00
2018-12-14T23:27:10.498Z,97454.59
2018-12-14T23:29:44.451Z,97455.22
2018-12-14T23:32:26.320Z,97454.22
2018-12-14T23:35:08.170Z,97455.47
2018-12-14T23:37:55.432Z,97455.04
2018-12-14T23:40:32.710Z,97454.55
2018-12-14T23:43:14.535Z,97457.95
2018-12-14T23:45:49.919Z,97460.99
2018-12-14T23:48:31.422Z,97461.75
2018-12-14T23:51:13.340Z,97462.12
2018-12-14T23:53:55.291Z,97465.78
2018-12-14T23:56:37.463Z,97461.48
2018-12-14T23:59:37.706Z,97463.92
